Terminal Aerodrome Forecast
Issued by NWS Charleston, SC

Home | Current Version | Previous Version | Text Only | Print | Product List | Glossary On
Versions: 1 2 3 4 5 6 7 8 9 10 11 12 13 14 15 16 17 18 19 20 21 22 23 24 25 26 27 28
368
FTUS42 KCHS 240621 AAA
TAFCHS
TAF AMD
KCHS 240621Z 2406/2506 21008KT P6SM SCT015 BKN040
      TEMPO 2406/2407 2SM TSRA BR BKN030CB
     FM241130 22008KT P6SM BKN025
     FM241700 20014G20KT P6SM VCTS SCT025CB BKN035
      TEMPO 2420/2424 VRB20G30KT 3SM TSRA BR SCT020CB BKN030
     FM250200 22012KT P6SM VCSH SCT030 BKN040=

USA.gov is the U.S. government's official web portal to all federal, state and local government web resources and services.